Time;durP1;ratioP1;P1;durP2;ratioP2;P2;SDS_P1;SDS_P2;PMS_P1;PMS_P2;Temp;Humidity;BMP_temperature;BMP_pressure;BME280_temperature;BME280_humidity;BME280_pressure;Samples;Min_cycle;Max_cycle;Signal;HPM_P1;HPM_P2
2022/09/19 00:01:44;;;;;;;;;4.00;1.67;;;;;15.72;50.53;101648.03;5015161;28;46219;-66
2022/09/19 00:04:17;;;;;;;;;3.00;3.00;;;;;15.77;50.69;101659.13;5011399;28;45528;-69
2022/09/19 00:06:44;;;;;;;;;2.33;2.33;;;;;15.75;51.11;101658.44;5015151;28;45357;-68
2022/09/19 00:09:12;;;;;;;;;2.67;2.67;;;;;15.32;50.97;101593.06;5016215;28;45634;-67
2022/09/19 00:11:40;;;;;;;;;5.00;3.33;;;;;15.58;51.14;101624.41;5015542;28;46686;-66
2022/09/19 00:14:06;;;;;;;;;3.33;3.33;;;;;15.68;51.32;101652.03;5015805;28;45319;-68
2022/09/19 00:16:34;;;;;;;;;3.33;3.33;;;;;15.21;51.37;101574.53;5015562;28;45461;-68
2022/09/19 00:19:02;;;;;;;;;3.33;3.00;;;;;15.65;51.63;101663.06;5015843;28;45525;-68
2022/09/19 00:21:33;;;;;;;;;2.00;2.00;;;;;15.53;51.70;101640.97;5015516;28;45633;-68
2022/09/19 00:26:45;;;;;;;;;2.00;2.00;;;;;15.59;51.89;101656.47;5015323;28;45259;-67
2022/09/19 00:29:11;;;;;;;;;9.00;8.67;;;;;15.51;51.94;101646.50;5017224;28;45428;-67
2022/09/19 00:31:37;;;;;;;;;5.00;4.33;;;;;15.12;51.82;101580.81;5018667;28;46975;-66
2022/09/19 00:34:06;;;;;;;;;4.00;4.00;;;;;15.00;52.21;101569.47;5019018;28;45412;-68
2022/09/19 00:36:33;;;;;;;;;5.33;4.00;;;;;15.59;52.02;101656.47;5019153;28;45483;-67
2022/09/19 00:38:59;;;;;;;;;4.33;3.00;;;;;15.57;52.08;101660.25;5011266;28;45468;-67
2022/09/19 00:41:27;;;;;;;;;3.00;3.00;;;;;15.62;52.07;101663.38;5018682;28;46199;-68
2022/09/19 00:44:01;;;;;;;;;2.33;2.33;;;;;15.60;52.35;101676.06;5019033;28;45506;-66
2022/09/19 00:46:28;;;;;;;;;5.00;4.00;;;;;15.46;51.99;101642.59;5019044;28;45316;-68
2022/09/19 00:48:59;;;;;;;;;3.00;3.00;;;;;15.59;52.34;101669.03;5018712;28;45378;-67
2022/09/19 00:51:52;;;;;;;;;2.33;2.33;;;;;15.58;51.98;101672.66;5017292;28;47614;-69
2022/09/19 00:54:24;;;;;;;;;5.67;3.00;;;;;15.44;52.17;101645.44;5018353;28;45505;-68
2022/09/19 00:56:54;;;;;;;;;6.00;4.00;;;;;15.55;52.23;101662.25;5018892;28;45217;-66
2022/09/19 00:59:23;;;;;;;;;2.00;2.00;;;;;15.56;52.35;101664.78;5014044;28;45472;-67
2022/09/19 01:01:51;;;;;;;;;3.00;3.00;;;;;15.40;52.69;101633.31;5014832;28;47617;-67
2022/09/19 01:04:19;;;;;;;;;3.00;3.00;;;;;15.56;52.35;101664.78;5018286;28;45257;-67
2022/09/19 01:06:55;;;;;;;;;3.00;3.00;;;;;15.57;52.46;101666.47;5018520;28;45325;-69
2022/09/19 01:09:44;;;;;;;;;2.00;2.00;;;;;14.93;52.38;101571.09;5018885;28;45488;-68
2022/09/19 01:12:23;;;;;;;;;5.00;3.67;;;;;15.33;52.62;101642.97;5018031;28;46745;-67
2022/09/19 01:15:12;;;;;;;;;3.00;3.00;;;;;15.47;52.92;101661.19;5018068;28;45269;-68
2022/09/19 01:17:50;;;;;;;;;2.67;2.67;;;;;15.47;52.84;101666.56;5018355;28;45432;-66
2022/09/19 01:20:31;;;;;;;;;4.00;2.33;;;;;15.43;53.04;101667.88;5018714;28;45206;-66
2022/09/19 01:23:25;;;;;;;;;3.00;3.00;;;;;15.38;52.83;101662.09;5018000;28;45726;-68
2022/09/19 01:26:31;;;;;;;;;2.33;2.00;;;;;15.39;53.24;101666.47;5018036;28;45321;-69
2022/09/19 01:29:00;;;;;;;;;5.00;5.00;;;;;15.36;53.48;101664.09;5018124;28;45292;-66
2022/09/19 01:31:30;;;;;;;;;3.00;3.00;;;;;15.34;53.35;101660.72;5018323;28;45435;-67
2022/09/19 01:34:07;;;;;;;;;2.67;2.33;;;;;15.37;53.20;101667.63;5017579;28;46554;-66
2022/09/19 01:36:46;;;;;;;;;4.00;4.00;;;;;15.36;53.15;101668.63;5018004;28;45463;-66
2022/09/19 01:39:17;;;;;;;;;3.67;3.00;;;;;15.32;53.63;101665.41;5017813;28;45194;-66
2022/09/19 01:41:54;;;;;;;;;3.00;3.00;;;;;15.33;53.51;101672.44;5017253;28;45321;-67
2022/09/19 01:44:22;;;;;;;;;2.00;2.00;;;;;15.34;53.83;101671.44;5010119;28;45414;-67
2022/09/19 01:47:33;;;;;;;;;2.00;2.00;;;;;15.32;53.57;101664.56;5016471;28;46387;-68
2022/09/19 01:50:17;;;;;;;;;4.00;3.00;;;;;15.33;53.39;101667.09;5015238;28;45475;-67
2022/09/19 01:52:49;;;;;;;;;3.67;3.67;;;;;15.33;53.40;101668.94;5016789;28;45325;-67
2022/09/19 01:55:40;;;;;;;;;2.00;2.00;;;;;15.22;53.69;101661.97;5017613;28;46425;-67
2022/09/19 01:58:21;;;;;;;;;4.00;3.00;;;;;15.31;53.93;101673.59;5032649;28;45392;-67
2022/09/19 02:01:00;;;;;;;;;2.67;2.67;;;;;15.34;53.43;101679.50;5017926;28;45245;-67
2022/09/19 02:03:50;;;;;;;;;4.00;4.00;;;;;15.29;53.65;101665.72;5018027;28;45399;-67
2022/09/19 02:06:37;;;;;;;;;2.67;2.67;;;;;15.22;53.73;101656.59;5017592;28;47269;-67
2022/09/19 02:09:12;;;;;;;;;2.33;2.33;;;;;14.76;53.92;101577.28;5032894;28;45601;-67
2022/09/19 02:11:38;;;;;;;;;3.00;3.00;;;;;15.27;54.05;101670.38;5016654;28;45550;-67
2022/09/19 02:14:16;;;;;;;;;2.00;2.00;;;;;15.18;54.12;101661.41;5016234;28;45543;-68
2022/09/19 02:16:47;;;;;;;;;2.67;2.67;;;;;13.32;53.80;101353.28;5017323;28;46345;-67
2022/09/19 02:19:38;;;;;;;;;4.33;3.33;;;;;15.33;53.84;101683.16;5015755;28;45622;-68
2022/09/19 02:22:10;;;;;;;;;4.00;2.33;;;;;15.15;54.05;101651.00;5017416;28;45300;-67
2022/09/19 02:24:40;;;;;;;;;2.00;2.00;;;;;15.32;53.97;101692.19;5017793;28;45404;-67
2022/09/19 02:27:11;;;;;;;;;5.67;4.00;;;;;15.33;53.99;101687.69;5016920;28;46647;-66
2022/09/19 02:29:44;;;;;;;;;3.00;3.00;;;;;15.29;54.05;101689.81;5010567;28;45409;-68
2022/09/19 02:32:11;;;;;;;;;2.00;2.00;;;;;15.19;54.32;101672.97;5017443;28;45497;-67
2022/09/19 02:34:37;;;;;;;;;2.67;2.67;;;;;15.11;53.79;101664.84;5017585;28;45206;-66
2022/09/19 02:37:18;;;;;;;;;4.33;3.67;;;;;15.21;53.70;101682.53;5017220;28;46114;-66
2022/09/19 02:39:58;;;;;;;;;3.00;2.33;;;;;15.18;54.17;101671.28;5011117;28;45357;-68
2022/09/19 02:42:53;;;;;;;;;3.67;3.00;;;;;15.28;54.70;101687.31;5018798;28;45608;-67
2022/09/19 02:45:31;;;;;;;;;2.00;2.00;;;;;15.23;54.12;101679.72;5011466;28;45451;-67
2022/09/19 02:48:16;;;;;;;;;3.00;2.00;;;;;15.29;54.39;101692.50;5032075;28;48908;-66
2022/09/19 02:50:58;;;;;;;;;2.00;2.00;;;;;15.31;54.33;101687.00;5017060;28;45411;-67
2022/09/19 02:53:29;;;;;;;;;5.00;5.00;;;;;15.26;54.07;101684.78;5016617;28;45458;-67
2022/09/19 02:55:59;;;;;;;;;2.33;2.33;;;;;15.21;54.43;101685.22;5016876;28;45510;-69
2022/09/19 02:58:28;;;;;;;;;3.33;3.33;;;;;15.31;54.47;101693.19;5015125;28;47351;-68
2022/09/19 03:01:01;;;;;;;;;3.00;3.00;;;;;15.12;54.60;101687.97;5016544;28;45325;-67
2022/09/19 03:06:21;;;;;;;;;4.00;2.00;;;;;15.10;55.15;101692.63;5016584;28;45455;-67
2022/09/19 03:08:50;;;;;;;;;2.33;2.33;;;;;15.04;54.86;101678.00;5016644;28;46586;-68
2022/09/19 03:11:19;;;;;;;;;3.67;3.67;;;;;15.05;54.98;101690.41;5016403;28;45384;-67
2022/09/19 03:13:45;;;;;;;;;3.00;3.00;;;;;15.05;55.18;101692.25;5016706;28;45275;-67
2022/09/19 03:16:25;;;;;;;;;3.33;2.33;;;;;14.92;55.16;101681.88;5016761;28;45367;-68
2022/09/19 03:18:55;;;;;;;;;3.00;1.00;;;;;14.64;55.73;101638.22;5016349;28;45584;-67
2022/09/19 03:21:23;;;;;;;;;1.67;1.67;;;;;14.35;55.70;101605.34;5016302;28;45296;-67
2022/09/19 03:23:51;;;;;;;;;1.00;1.00;;;;;14.89;55.74;101693.72;5031723;28;45321;-66
2022/09/19 03:26:20;;;;;;;;;2.67;2.33;;;;;14.84;55.94;101693.34;5016648;28;45503;-67
2022/09/19 03:28:46;;;;;;;;;2.00;2.00;;;;;14.74;55.93;101679.16;5008387;28;47025;-67
2022/09/19 03:31:11;;;;;;;;;2.00;2.00;;;;;14.70;55.87;101660.84;5015404;28;45414;-66
2022/09/19 03:33:39;;;;;;;;;4.67;3.67;;;;;14.88;55.82;101691.19;5031987;28;45597;-67
2022/09/19 03:36:07;;;;;;;;;2.67;2.67;;;;;14.78;56.05;101677.00;5016979;28;45192;-67
2022/09/19 03:38:34;;;;;;;;;4.00;3.00;;;;;14.73;55.63;101669.44;5031813;28;49244;-67
2022/09/19 03:40:59;;;;;;;;;3.00;2.00;;;;;14.86;55.66;101683.31;5016715;28;45411;-68
2022/09/19 03:43:25;;;;;;;;;1.67;1.67;;;;;14.89;55.79;101685.69;5016830;28;45537;-67
2022/09/19 03:45:51;;;;;;;;;2.67;2.67;;;;;14.97;55.54;101689.44;5016826;28;45276;-68
2022/09/19 03:48:16;;;;;;;;;3.00;2.00;;;;;14.94;55.94;101701.31;5015840;28;45939;-68
2022/09/19 03:50:42;;;;;;;;;4.33;2.33;;;;;14.82;56.54;101706.03;5016205;28;45237;-67
2022/09/19 03:53:08;;;;;;;;;2.67;2.67;;;;;14.75;56.62;101691.53;5015902;28;45534;-68
2022/09/19 03:55:37;;;;;;;;;3.00;2.00;;;;;14.20;56.42;101611.16;5016109;28;45496;-67
2022/09/19 03:58:03;;;;;;;;;7.00;2.67;;;;;14.81;56.33;101712.34;5015878;28;46512;-71
2022/09/19 04:00:28;;;;;;;;;4.00;2.00;;;;;14.78;56.05;101696.59;5014504;28;45235;-68
2022/09/19 04:02:54;;;;;;;;;1.67;1.67;;;;;14.73;55.63;101693.53;5016285;28;45360;-67
2022/09/19 04:05:19;;;;;;;;;4.33;3.33;;;;;14.89;56.11;101712.47;5019350;28;45306;-67
2022/09/19 04:07:44;;;;;;;;;3.00;3.00;;;;;14.85;56.07;101705.72;5019057;28;46165;-69
2022/09/19 04:10:10;;;;;;;;;1.00;1.00;;;;;14.80;56.22;101693.75;5019324;28;45335;-69
2022/09/19 04:12:35;;;;;;;;;3.67;2.67;;;;;14.89;56.37;101714.31;5034916;28;45606;-66
2022/09/19 04:15:00;;;;;;;;;3.67;3.67;;;;;14.85;56.00;101702.22;5019506;28;45566;-68
2022/09/19 04:17:27;;;;;;;;;2.00;2.00;;;;;14.86;55.96;101710.09;5034003;28;46249;-67
2022/09/19 04:19:53;;;;;;;;;1.33;1.33;;;;;14.94;56.09;101716.53;5019147;28;45373;-67
2022/09/19 04:22:18;;;;;;;;;4.33;3.67;;;;;14.96;56.22;101719.91;5018960;28;45304;-67
2022/09/19 04:24:44;;;;;;;;;5.33;3.67;;;;;14.93;56.29;101714.84;5019299;28;45440;-67
2022/09/19 04:27:13;;;;;;;;;4.00;4.00;;;;;14.75;56.36;101683.50;5011069;28;46141;-68
2022/09/19 04:29:39;;;;;;;;;3.33;3.33;;;;;14.91;56.15;101713.16;5019699;28;45269;-68
2022/09/19 04:32:04;;;;;;;;;8.67;5.67;;;;;14.76;56.56;101684.34;5020320;28;45532;-68
2022/09/19 04:34:30;;;;;;;;;6.33;4.33;;;;;14.83;56.49;101704.19;5019267;28;45280;-67
2022/09/19 04:36:57;;;;;;;;;5.00;5.00;;;;;14.73;56.92;101698.88;5018632;28;46408;-67
2022/09/19 04:39:23;;;;;;;;;3.33;3.33;;;;;14.86;56.80;101717.28;5018383;28;45577;-66
2022/09/19 04:41:52;;;;;;;;;4.00;4.00;;;;;14.85;57.23;101719.13;5019195;28;45370;-68
2022/09/19 04:44:26;;;;;;;;;10.00;8.00;;;;;14.82;57.32;101716.75;5019109;28;45361;-69
2022/09/19 04:46:52;;;;;;;;;6.67;3.67;;;;;14.73;57.18;101704.22;5018762;28;46621;-68
2022/09/19 04:49:17;;;;;;;;;4.00;4.00;;;;;14.82;57.35;101730.13;5019055;28;45467;-68
2022/09/19 04:51:44;;;;;;;;;4.33;4.33;;;;;14.80;57.55;101724.06;5018715;28;45979;-68
2022/09/19 04:54:10;;;;;;;;;7.00;5.67;;;;;14.82;57.12;101726.63;5018700;28;45760;-67
2022/09/19 04:56:35;;;;;;;;;5.33;5.33;;;;;14.68;57.17;101717.22;5018631;28;46526;-67
2022/09/19 04:59:01;;;;;;;;;5.67;5.67;;;;;14.67;57.32;101720.88;5018420;28;45234;-68
2022/09/19 05:01:27;;;;;;;;;2.67;2.67;;;;;14.65;57.37;101720.19;5017657;28;45523;-68
2022/09/19 05:03:52;;;;;;;;;8.00;6.00;;;;;14.66;57.39;101713.84;5018570;28;45253;-68
2022/09/19 05:06:17;;;;;;;;;4.67;4.67;;;;;14.74;57.46;101730.00;5018387;28;47123;-68
2022/09/19 05:08:43;;;;;;;;;7.33;6.67;;;;;14.73;57.39;101728.31;5018418;28;45312;-66
2022/09/19 05:11:09;;;;;;;;;6.67;6.67;;;;;14.70;57.50;101733.97;5017237;28;45342;-66
2022/09/19 05:13:40;;;;;;;;;8.00;8.00;;;;;14.69;57.53;101734.97;5018644;28;45396;-69
2022/09/19 05:16:07;;;;;;;;;11.67;9.33;;;;;14.69;57.72;101734.97;5033152;28;48040;-68
2022/09/19 05:18:35;;;;;;;;;7.67;7.67;;;;;14.68;57.63;101735.94;5013285;28;46179;-66
2022/09/19 05:21:10;;;;;;;;;9.33;9.33;;;;;14.65;57.79;101732.72;5016079;28;45192;-68
2022/09/19 05:23:38;;;;;;;;;9.33;9.33;;;;;14.61;57.74;101741.03;5018406;28;45417;-68
2022/09/19 05:26:09;;;;;;;;;12.33;8.67;;;;;14.01;58.25;101635.28;5017600;28;46129;-68
2022/09/19 05:28:35;;;;;;;;;11.33;11.33;;;;;14.56;58.07;101734.44;5016029;28;45644;-68
2022/09/19 05:31:05;;;;;;;;;9.33;9.33;;;;;14.63;57.99;101745.41;5017486;28;45374;-66
2022/09/19 05:33:32;;;;;;;;;6.33;6.33;;;;;14.52;57.80;101725.84;5018269;28;45331;-68
2022/09/19 05:36:00;;;;;;;;;10.33;9.67;;;;;14.56;58.27;101734.44;5015995;28;48341;-69
2022/09/19 05:38:26;;;;;;;;;10.33;10.33;;;;;14.54;58.09;101739.09;5015985;28;45229;-69
2022/09/19 05:40:56;;;;;;;;;10.33;8.00;;;;;14.58;57.99;101749.34;5017954;28;45395;-69
2022/09/19 05:43:22;;;;;;;;;11.00;9.67;;;;;14.56;58.06;101751.34;5018243;28;45399;-71
2022/09/19 05:45:48;;;;;;;;;7.67;6.33;;;;;14.62;58.00;101755.28;5032757;28;47918;-69
2022/09/19 05:48:14;;;;;;;;;8.67;7.67;;;;;14.51;58.09;101739.38;5016816;28;45440;-73
2022/09/19 05:50:43;;;;;;;;;10.00;8.00;;;;;14.45;58.17;101722.09;5017276;28;45534;-70
2022/09/19 05:55:53;;;;;;;;;13.00;9.00;;;;;14.69;58.55;101752.84;5010576;28;45887;-71
2022/09/19 05:58:20;;;;;;;;;10.67;10.67;;;;;14.70;58.46;101760.75;5017418;28;45368;-68
2022/09/19 06:00:45;;;;;;;;;10.67;9.00;;;;;14.61;58.36;101742.84;5017150;28;45402;-70
2022/09/19 06:03:16;;;;;;;;;12.00;11.00;;;;;14.71;57.98;101758.91;5017756;28;45508;-70
2022/09/19 06:05:44;;;;;;;;;9.00;8.33;;;;;14.71;58.24;101762.44;5015607;28;47252;-68
2022/09/19 06:08:11;;;;;;;;;27.67;25.33;;;;;14.77;58.51;101763.66;5032420;28;45554;-68
2022/09/19 06:10:39;;;;;;;;;9.67;8.67;;;;;14.79;57.86;101767.03;5017256;28;45234;-70
2022/09/19 06:13:06;;;;;;;;;6.00;6.00;;;;;14.68;57.83;101754.69;5016721;28;45471;-69
2022/09/19 06:15:32;;;;;;;;;7.67;6.67;;;;;14.80;57.80;101769.56;5017158;28;45420;-70
2022/09/19 06:17:58;;;;;;;;;8.33;8.00;;;;;14.02;57.81;101642.34;5017483;28;45321;-72
2022/09/19 06:20:24;;;;;;;;;9.33;9.33;;;;;14.79;58.02;101767.88;5019494;28;45222;-74
2022/09/19 06:22:56;;;;;;;;;5.67;5.33;;;;;14.75;57.82;101762.97;5017614;28;45491;-76
2022/09/19 06:25:21;;;;;;;;;7.33;7.33;;;;;14.86;57.47;101781.53;5009704;28;45711;-70
2022/09/19 06:27:54;;;;;;;;;6.00;6.00;;;;;14.69;57.52;101756.38;5016262;28;45237;-69
2022/09/19 06:30:19;;;;;;;;;10.67;7.33;;;;;14.89;57.23;101779.41;5009190;28;45342;-69
2022/09/19 06:32:45;;;;;;;;;9.67;9.67;;;;;15.02;57.33;101797.00;5017326;28;45315;-70
2022/09/19 06:35:10;;;;;;;;;10.00;10.00;;;;;14.72;57.47;101756.06;5016086;28;46268;-70
2022/09/19 06:37:35;;;;;;;;;9.33;9.33;;;;;15.03;57.58;101790.66;5016153;28;45476;-71
2022/09/19 06:40:01;;;;;;;;;7.00;7.00;;;;;14.60;57.52;101711.75;5015211;28;45550;-70
2022/09/19 06:42:26;;;;;;;;;6.67;6.33;;;;;14.99;57.19;101782.03;5016583;28;46582;-77
2022/09/19 06:44:52;;;;;;;;;9.00;9.00;;;;;15.14;57.28;101798.47;5029926;28;48754;-70
2022/09/19 06:47:17;;;;;;;;;9.00;7.00;;;;;15.12;56.82;101789.75;5015957;28;45297;-70
2022/09/19 06:49:43;;;;;;;;;8.33;5.67;;;;;15.35;56.81;101812.47;5015969;28;45209;-72
2022/09/19 06:52:08;;;;;;;;;9.67;8.67;;;;;15.63;55.97;101799.09;5016180;28;45530;-69
2022/09/19 06:54:33;;;;;;;;;5.00;5.00;;;;;15.87;55.11;101764.47;5016081;28;45527;-70
2022/09/19 06:57:00;;;;;;;;;7.33;7.33;;;;;16.76;53.97;101809.97;5015749;28;45259;-71
2022/09/19 06:59:25;;;;;;;;;10.00;8.00;;;;;17.48;52.09;101811.34;5013266;28;46043;-68
2022/09/19 07:01:51;;;;;;;;;9.00;9.00;;;;;18.12;50.17;101798.19;5011551;28;45450;-69
2022/09/19 07:04:16;;;;;;;;;10.33;8.67;;;;;18.84;48.69;101829.66;5014324;28;48643;-70
2022/09/19 07:06:41;;;;;;;;;12.00;9.67;;;;;19.58;47.52;101829.41;5015500;28;45591;-70
2022/09/19 07:09:07;;;;;;;;;11.33;9.33;;;;;20.10;45.90;101788.25;5013021;28;45535;-69
2022/09/19 07:11:35;;;;;;;;;11.33;8.67;;;;;20.94;44.07;101822.25;5015610;28;45518;-73
2022/09/19 07:14:02;;;;;;;;;9.00;7.00;;;;;21.69;42.54;101815.78;5016313;28;45565;-71
2022/09/19 07:16:27;;;;;;;;;10.00;7.33;;;;;22.28;40.50;101816.41;5016292;28;45360;-71
2022/09/19 07:18:52;;;;;;;;;6.33;5.67;;;;;22.95;39.73;101831.31;5015457;28;45429;-72
2022/09/19 07:21:18;;;;;;;;;9.00;7.00;;;;;23.56;38.63;101835.00;5015226;28;45632;-70
2022/09/19 07:23:44;;;;;;;;;13.67;8.00;;;;;24.09;37.15;101815.28;5031251;28;47611;-70
2022/09/19 07:26:10;;;;;;;;;6.67;6.67;;;;;24.68;36.06;101825.38;5014083;28;45387;-71
2022/09/19 07:28:35;;;;;;;;;9.33;8.00;;;;;24.98;35.20;101837.44;5016176;28;45329;-70
2022/09/19 07:31:01;;;;;;;;;16.00;16.00;;;;;25.30;34.87;101834.88;5014405;28;45548;-71
2022/09/19 07:33:28;;;;;;;;;8.00;7.67;;;;;25.76;34.02;101840.97;5014847;28;45600;-71
2022/09/19 07:35:54;;;;;;;;;8.00;5.67;;;;;26.20;33.27;101831.03;5013997;28;45957;-70
2022/09/19 07:38:21;;;;;;;;;8.33;8.33;;;;;26.61;32.08;101826.97;5013837;28;45497;-71
2022/09/19 07:40:47;;;;;;;;;7.67;7.33;;;;;26.94;31.53;101811.09;5015726;28;45471;-71
2022/09/19 07:43:15;;;;;;;;;5.00;5.00;;;;;27.48;30.41;101842.22;5015266;28;46519;-70
2022/09/19 07:45:46;;;;;;;;;6.00;5.00;;;;;27.72;30.18;101804.09;5019799;28;45422;-69
2022/09/19 07:48:12;;;;;;;;;7.50;6.50;;;;;28.19;29.22;101814.09;5020608;28;45712;-70
2022/09/19 07:50:37;;;;;;;;;5.33;5.33;;;;;28.33;28.88;101760.03;5015610;28;45495;-70
2022/09/19 07:53:11;;;;;;;;;9.00;9.00;;;;;28.77;27.87;101791.44;5014284;28;48617;-68
2022/09/19 07:55:37;;;;;;;;;9.67;7.67;;;;;29.35;27.15;101845.28;5014195;28;45497;-74
2022/09/19 07:58:03;;;;;;;;;6.33;5.33;;;;;29.64;27.63;101846.19;5019456;28;45524;-69
2022/09/19 08:00:30;;;;;;;;;8.00;7.00;;;;;30.14;26.86;101847.41;5016047;28;45583;-70
2022/09/19 08:02:57;;;;;;;;;10.67;8.33;;;;;30.47;26.25;101838.38;5015408;28;46479;-70
2022/09/19 08:05:23;;;;;;;;;6.00;6.00;;;;;30.71;25.51;101833.53;5015343;28;45482;-70
2022/09/19 08:07:48;;;;;;;;;11.00;9.33;;;;;30.59;25.73;101785.03;5017136;28;45200;-70
2022/09/19 08:10:15;;;;;;;;;5.33;5.33;;;;;31.08;24.99;101826.38;5016656;28;45559;-74
2022/09/19 08:12:44;;;;;;;;;6.33;6.00;;;;;31.20;25.17;101839.19;5015776;28;46545;-69
2022/09/19 08:15:09;;;;;;;;;4.00;4.00;;;;;31.41;24.84;101860.34;5030527;28;45553;-69
2022/09/19 08:17:36;;;;;;;;;2.00;2.00;;;;;31.34;23.85;101841.31;5015067;28;45543;-71
2022/09/19 08:20:02;;;;;;;;;4.00;4.00;;;;;31.25;23.88;101864.00;5015772;28;45480;-71
2022/09/19 08:22:27;;;;;;;;;15.00;15.00;;;;;31.04;24.67;101858.19;5015661;28;45852;-69
2022/09/19 08:24:53;;;;;;;;;6.33;5.33;;;;;30.84;23.57;101855.16;5017533;28;45964;-71
2022/09/19 08:27:18;;;;;;;;;3.00;3.00;;;;;29.88;24.83;101846.91;5009894;28;45607;-70
2022/09/19 08:29:44;;;;;;;;;4.67;4.67;;;;;29.28;26.03;101868.41;5015063;28;45619;-69
2022/09/19 08:32:09;;;;;;;;;5.00;5.00;;;;;28.23;26.82;101821.81;5015007;28;46562;-71
2022/09/19 08:34:35;;;;;;;;;3.33;3.00;;;;;27.36;27.08;101884.16;5013755;28;45581;-71
2022/09/19 08:37:00;;;;;;;;;5.67;2.67;;;;;27.33;27.89;101874.53;5015146;28;45531;-70
2022/09/19 08:39:26;;;;;;;;;4.67;4.67;;;;;27.31;27.36;101860.28;5019451;28;45398;-72
2022/09/19 08:42:22;;;;;;;;;1.33;1.33;;;;;27.30;27.58;101872.28;5015000;28;46521;-71
2022/09/19 08:45:03;;;;;;;;;3.00;3.00;;;;;27.31;27.52;101879.41;5014764;28;45511;-70
2022/09/19 08:47:32;;;;;;;;;6.00;6.00;;;;;27.08;27.67;101854.66;5030512;28;45405;-70
2022/09/19 08:50:05;;;;;;;;;3.67;3.33;;;;;27.41;27.02;101871.50;5008685;28;45513;-70
2022/09/19 08:52:39;;;;;;;;;4.00;2.67;;;;;27.02;26.80;101861.00;5033658;28;46590;-71
2022/09/19 08:55:10;;;;;;;;;0.67;0.67;;;;;25.83;28.02;101878.22;5011743;28;46158;-72
2022/09/19 08:57:50;;;;;;;;;0.67;0.67;;;;;25.12;29.50;101882.66;5033643;28;45525;-73
2022/09/19 09:00:19;;;;;;;;;2.00;2.00;;;;;25.38;29.24;101879.03;5012028;28;45445;-70
2022/09/19 09:02:50;;;;;;;;;2.33;2.33;;;;;24.88;29.72;101886.03;5032967;28;46084;-70
2022/09/19 09:05:59;;;;;;;;;1.00;1.00;;;;;24.27;30.97;101881.56;5018127;28;45367;-72
2022/09/19 09:08:28;;;;;;;;;3.00;1.67;;;;;23.47;32.17;101895.06;4991528;28;45312;-70
2022/09/19 09:11:07;;;;;;;;;2.00;2.00;;;;;22.75;33.09;101888.91;5017936;28;45502;-70
2022/09/19 09:14:10;;;;;;;;;3.00;2.33;;;;;22.61;34.15;101895.25;5017722;28;45819;-70
2022/09/19 09:17:04;;;;;;;;;3.67;2.33;;;;;22.49;34.17;101888.69;5018388;28;45249;-71
2022/09/19 09:20:02;;;;;;;;;1.00;1.00;;;;;22.54;34.05;101891.66;5017926;28;45384;-69
2022/09/19 09:22:32;;;;;;;;;1.00;1.00;;;;;23.01;33.19;101901.88;5027372;28;45557;-70
2022/09/19 09:25:10;;;;;;;;;0.00;0.00;;;;;22.85;32.86;101898.63;5017765;28;46246;-70
2022/09/19 09:27:49;;;;;;;;;2.00;1.00;;;;;22.01;33.66;101836.09;5017828;28;45333;-71
2022/09/19 09:30:18;;;;;;;;;1.00;1.00;;;;;21.96;33.85;101884.56;5017824;28;45373;-69
2022/09/19 09:32:51;;;;;;;;;1.67;1.00;;;;;22.90;33.67;101890.75;5018202;28;45266;-70
2022/09/19 09:35:43;;;;;;;;;0.00;0.00;;;;;24.41;30.24;101890.59;5017119;28;48633;-69
2022/09/19 09:38:51;;;;;;;;;1.33;1.33;;;;;26.79;27.58;101895.22;5016033;28;45528;-70
2022/09/19 09:41:45;;;;;;;;;0.67;0.67;;;;;28.97;25.13;101883.31;5017730;28;45363;-70
2022/09/19 09:44:13;;;;;;;;;1.00;1.00;;;;;29.38;23.50;101883.16;5017824;28;45323;-68
2022/09/19 09:46:53;;;;;;;;;1.00;1.00;;;;;28.42;23.70;101884.44;5016156;28;46524;-68
2022/09/19 09:49:22;;;;;;;;;1.00;1.00;;;;;27.22;25.02;101894.41;5017037;28;45315;-70
2022/09/19 09:52:15;;;;;;;;;0.33;0.33;;;;;26.28;26.48;101887.22;5032886;28;45619;-68
2022/09/19 09:57:37;;;;;;;;;0.00;0.00;;;;;24.72;28.27;101884.56;5009258;28;46115;-68
2022/09/19 10:03:38;;;;;;;;;2.33;1.33;;;;;23.44;30.31;101890.88;5012936;28;45447;-70
2022/09/19 10:06:19;;;;;;;;;0.67;0.67;;;;;23.26;30.46;101885.97;5017409;28;45353;-69
2022/09/19 10:08:54;;;;;;;;;0.00;0.00;;;;;22.60;31.05;101882.75;5016926;28;46181;-69
2022/09/19 10:11:33;;;;;;;;;2.00;1.00;;;;;22.40;31.33;101889.84;5017082;28;46384;-71
2022/09/19 10:14:01;;;;;;;;;0.00;0.00;;;;;21.82;31.63;101881.75;5014648;28;45360;-71
2022/09/19 10:16:32;;;;;;;;;0.33;0.33;;;;;21.31;31.95;101844.84;5017042;28;45391;-68
2022/09/19 10:19:08;;;;;;;;;0.33;0.33;;;;;21.46;31.91;101859.22;5017103;28;46024;-70
2022/09/19 10:21:38;;;;;;;;;1.67;1.00;;;;;20.87;33.13;101891.59;5017412;28;45304;-71
2022/09/19 10:24:42;;;;;;;;;1.00;0.00;;;;;20.63;33.31;101885.41;5013454;28;45447;-71
2022/09/19 10:27:35;;;;;;;;;1.00;1.00;;;;;20.50;33.44;101878.94;5012764;28;45468;-71
2022/09/19 10:30:16;;;;;;;;;0.67;0.00;;;;;20.55;33.51;101879.22;5014456;28;46011;-69
2022/09/19 10:32:43;;;;;;;;;0.00;0.00;;;;;20.25;33.30;101841.28;5016948;28;45309;-69
2022/09/19 10:35:32;;;;;;;;;2.67;0.00;;;;;20.22;33.63;101878.59;5020127;28;45293;-69
2022/09/19 10:38:14;;;;;;;;;1.00;1.00;;;;;19.96;33.88;101862.75;5014345;28;45412;-70
2022/09/19 10:40:58;;;;;;;;;0.67;0.67;;;;;20.11;34.05;101871.75;5013169;28;48902;-70
2022/09/19 10:43:31;;;;;;;;;0.00;0.00;;;;;20.15;33.80;101878.47;5016941;28;45350;-71
2022/09/19 10:46:07;;;;;;;;;0.00;0.00;;;;;19.97;33.49;101857.16;5015493;28;45320;-70
2022/09/19 10:48:41;;;;;;;;;0.00;0.00;;;;;19.92;33.44;101874.91;5015939;28;45431;-70
2022/09/19 10:51:13;;;;;;;;;1.33;1.00;;;;;19.52;34.04;101803.94;5018142;28;45570;-69
2022/09/19 10:53:45;;;;;;;;;0.67;0.67;;;;;19.71;34.57;101856.66;5016177;28;45269;-70
2022/09/19 10:56:25;;;;;;;;;1.00;1.00;;;;;19.78;34.60;101878.38;5017591;28;45355;-68
2022/09/19 10:59:01;;;;;;;;;2.00;1.00;;;;;19.06;34.35;101803.81;5024149;28;45303;-70
2022/09/19 11:01:27;;;;;;;;;2.00;1.00;;;;;19.42;34.43;101881.50;5016451;28;46165;-68
2022/09/19 11:04:21;;;;;;;;;3.00;2.00;;;;;19.29;34.50;101879.38;5016535;28;45479;-69
2022/09/19 11:07:02;;;;;;;;;0.00;0.00;;;;;19.30;34.66;101870.28;5016560;28;45306;-69
2022/09/19 11:09:36;;;;;;;;;0.00;0.00;;;;;19.37;34.73;101875.81;5032155;28;45587;-72
2022/09/19 11:12:14;;;;;;;;;1.67;1.33;;;;;19.37;35.12;101871.25;5014905;28;48814;-70
2022/09/19 11:14:43;;;;;;;;;0.33;0.33;;;;;18.67;35.49;101774.13;5015951;28;45529;-67
2022/09/19 11:17:37;;;;;;;;;2.00;0.33;;;;;19.15;34.86;101864.75;5015198;28;45613;-70
2022/09/19 11:20:16;;;;;;;;;1.00;0.00;;;;;18.92;35.61;101874.59;5016689;28;45367;-70
2022/09/19 11:23:03;;;;;;;;;4.00;2.00;;;;;19.01;35.84;101865.47;5016262;28;45726;-68
2022/09/19 11:25:34;;;;;;;;;4.00;4.00;;;;;19.20;35.40;101858.84;5016093;28;45340;-67
2022/09/19 11:28:15;;;;;;;;;2.00;2.00;;;;;19.33;35.06;101863.69;5005234;28;45443;-69
2022/09/19 11:31:05;;;;;;;;;0.67;0.67;;;;;19.27;34.58;101859.00;5015180;28;45301;-71
2022/09/19 11:33:43;;;;;;;;;1.00;1.00;;;;;19.24;35.00;101870.16;5013293;28;46942;-68
2022/09/19 11:36:31;;;;;;;;;3.00;1.00;;;;;18.70;35.02;101778.31;5015535;28;45509;-70
2022/09/19 11:39:05;;;;;;;;;1.00;0.00;;;;;19.42;34.76;101874.31;5015769;28;45419;-68
2022/09/19 11:41:43;;;;;;;;;1.00;1.00;;;;;19.49;34.60;101860.94;5014500;28;45479;-69
2022/09/19 11:44:26;;;;;;;;;2.67;1.00;;;;;19.66;34.60;101873.38;5007977;28;47596;-69
2022/09/19 11:47:12;;;;;;;;;12.00;9.00;;;;;19.78;34.48;101862.16;5015333;28;45571;-68
2022/09/19 11:49:50;;;;;;;;;1.33;1.33;;;;;19.69;34.62;101832.53;5011278;28;45557;-69
2022/09/19 11:52:47;;;;;;;;;11.67;11.67;;;;;19.97;34.55;101856.31;5008637;28;45574;-69
2022/09/19 11:55:27;;;;;;;;;3.33;1.00;;;;;20.04;33.71;101851.91;5008084;28;45696;-68
2022/09/19 11:58:05;;;;;;;;;0.00;0.00;;;;;20.05;33.60;101859.81;5012227;28;45507;-69
2022/09/19 12:00:45;;;;;;;;;0.00;0.00;;;;;19.89;33.10;101840.19;5015476;28;45536;-70
2022/09/19 12:03:24;;;;;;;;;1.67;1.00;;;;;20.05;32.88;101850.88;5016023;28;45385;-69